createdAt,value
2022-10-15T00:07:55.097Z,67.56
2022-10-15T00:17:56.561Z,67.50
2022-10-15T00:27:57.994Z,68.02
2022-10-15T00:38:00.675Z,67.97
2022-10-15T00:48:04.604Z,68.48
2022-10-15T00:58:17.811Z,68.57
2022-10-15T01:08:19.834Z,68.64
2022-10-15T01:18:28.990Z,68.26
2022-10-15T01:28:43.224Z,68.09
2022-10-15T01:39:00.212Z,68.42
2022-10-15T01:49:05.736Z,68.68
2022-10-15T01:59:10.134Z,68.84
2022-10-15T02:09:38.217Z,68.65
2022-10-15T02:19:48.961Z,68.55
2022-10-15T02:29:52.704Z,68.76
2022-10-15T02:39:54.707Z,68.78
2022-10-15T02:49:56.319Z,68.83
2022-10-15T02:59:58.612Z,68.88
2022-10-15T03:10:02.732Z,68.63
2022-10-15T03:20:05.337Z,69.11
2022-10-15T03:30:11.003Z,69.12
2022-10-15T03:40:14.605Z,68.86
2022-10-15T03:50:18.083Z,69.09
2022-10-15T04:00:20.516Z,69.20
2022-10-15T04:10:23.973Z,69.99
2022-10-15T04:20:25.600Z,70.15
2022-10-15T04:30:27.309Z,69.95
2022-10-15T04:40:33.661Z,69.81
2022-10-15T04:50:35.452Z,70.15
2022-10-15T05:00:54.653Z,70.46
2022-10-15T05:11:14.689Z,70.64
2022-10-15T05:21:17.468Z,70.58
2022-10-15T05:31:23.055Z,71.09
2022-10-15T05:41:30.680Z,71.82
2022-10-15T05:51:32.398Z,72.76
2022-10-15T06:01:42.859Z,72.81
2022-10-15T06:11:44.429Z,72.78
2022-10-15T06:21:53.043Z,73.98
2022-10-15T06:31:55.797Z,74.03
2022-10-15T06:41:57.298Z,73.70
2022-10-15T06:52:08.928Z,73.76
2022-10-15T07:02:11.041Z,72.52
2022-10-15T07:12:12.507Z,72.21
2022-10-15T07:22:13.954Z,70.66
2022-10-15T07:32:17.218Z,70.78
2022-10-15T07:42:18.776Z,70.24
2022-10-15T07:52:20.231Z,68.83
2022-10-15T08:02:25.472Z,68.26
2022-10-15T08:12:28.811Z,67.85
2022-10-15T08:22:30.476Z,66.96
2022-10-15T08:32:33.539Z,66.33
2022-10-15T08:42:42.850Z,65.26
2022-10-15T08:52:47.115Z,63.35
2022-10-15T09:03:20.211Z,61.88
2022-10-15T09:13:31.138Z,61.04
2022-10-15T09:23:34.106Z,59.54
2022-10-15T09:33:38.863Z,58.70
2022-10-15T09:43:44.557Z,55.71
2022-10-15T09:54:01.506Z,54.25
2022-10-15T10:04:10.817Z,55.92
2022-10-15T10:14:23.267Z,53.46
2022-10-15T10:24:31.959Z,51.50
2022-10-15T10:34:35.101Z,50.42
2022-10-15T10:44:39.301Z,49.02
2022-10-15T11:04:44.032Z,48.61
2022-10-15T11:15:27.194Z,54.38
2022-10-15T11:25:34.359Z,53.35
2022-10-15T11:35:53.745Z,52.28
2022-10-15T11:46:28.080Z,47.78
2022-10-15T11:56:38.739Z,46.02
2022-10-15T12:06:47.653Z,45.03
2022-10-15T12:17:04.604Z,44.31
2022-10-15T12:27:15.538Z,44.63
2022-10-15T12:37:19.128Z,45.29
2022-10-15T12:47:51.455Z,47.04
2022-10-15T12:58:23.326Z,46.80
2022-10-15T13:08:26.473Z,44.56
2022-10-15T13:18:31.448Z,43.14
2022-10-15T13:28:36.748Z,46.97
2022-10-15T13:38:41.097Z,48.11
2022-10-15T13:58:47.677Z,49.64
2022-10-15T14:08:52.406Z,49.50
2022-10-15T14:18:58.935Z,49.53
2022-10-15T14:29:01.957Z,50.03
2022-10-15T14:39:39.127Z,49.05
2022-10-15T14:49:40.721Z,49.56
2022-10-15T14:59:42.421Z,49.55
2022-10-15T15:09:47.401Z,49.88
2022-10-15T15:19:51.385Z,50.31
2022-10-15T15:29:53.497Z,50.52
2022-10-15T15:39:56.308Z,51.40
2022-10-15T15:49:57.773Z,51.59
2022-10-15T15:59:59.224Z,52.73
2022-10-15T16:10:03.978Z,53.48
2022-10-15T16:20:05.930Z,53.67
2022-10-15T16:30:08.279Z,54.02
2022-10-15T16:40:10.370Z,54.32
2022-10-15T16:50:11.898Z,55.23
2022-10-15T17:00:13.737Z,55.73
2022-10-15T17:10:15.331Z,56.14
2022-10-15T17:20:16.905Z,56.44
2022-10-15T17:30:18.372Z,56.35
2022-10-15T17:40:19.882Z,57.06
2022-10-15T17:50:21.391Z,57.50
2022-10-15T18:00:23.123Z,58.32
2022-10-15T18:10:24.780Z,59.09
2022-10-15T18:20:26.560Z,59.84
2022-10-15T18:30:28.190Z,59.94
2022-10-15T18:40:38.656Z,59.98
2022-10-15T18:50:43.938Z,59.97
2022-10-15T19:00:45.423Z,60.45
2022-10-15T19:10:47.332Z,60.81
2022-10-15T19:20:48.763Z,61.43
2022-10-15T19:30:59.119Z,61.80
2022-10-15T19:41:04.663Z,62.41
2022-10-15T19:51:06.954Z,62.63
2022-10-15T20:01:09.999Z,62.79
2022-10-15T20:11:12.139Z,63.10
2022-10-15T20:21:15.415Z,63.41
2022-10-15T20:31:28.232Z,63.15
2022-10-15T20:41:29.802Z,62.80
2022-10-15T20:51:31.617Z,62.86
2022-10-15T21:01:34.678Z,62.55
2022-10-15T21:11:41.132Z,62.66
2022-10-15T21:21:42.764Z,62.68
2022-10-15T21:31:44.271Z,63.03
2022-10-15T21:41:45.991Z,63.37
2022-10-15T21:51:48.321Z,63.82
2022-10-15T22:01:49.821Z,64.26
2022-10-15T22:11:51.277Z,64.63
2022-10-15T22:21:52.747Z,65.10
2022-10-15T22:31:55.530Z,65.11
2022-10-15T22:41:57.201Z,65.14
2022-10-15T22:51:58.767Z,65.22
2022-10-15T23:02:00.903Z,65.35
2022-10-15T23:12:02.367Z,65.09
2022-10-15T23:22:03.848Z,65.06
2022-10-15T23:32:05.403Z,65.96
2022-10-15T23:42:07.076Z,65.63
2022-10-15T23:52:08.849Z,65.60
